sensor_id;sensor_type;location;lat;lon;timestamp;pressure;altitude;pressure_sealevel;temperature;humidity
45357;BME280;31092;51.924;21.448;2022-12-07T00:01:11;99527.56;;;0.72;100.00
45357;BME280;31092;51.924;21.448;2022-12-07T00:03:38;99593.13;;;1.15;100.00
45357;BME280;31092;51.924;21.448;2022-12-07T00:06:05;99515.53;;;0.68;100.00
45357;BME280;31092;51.924;21.448;2022-12-07T00:08:32;99532.63;;;0.86;100.00
45357;BME280;31092;51.924;21.448;2022-12-07T00:11:06;99579.47;;;1.19;100.00
45357;BME280;31092;51.924;21.448;2022-12-07T00:13:42;99527.53;;;0.94;100.00
45357;BME280;31092;51.924;21.448;2022-12-07T00:16:16;99586.81;;;1.27;100.00
45357;BME280;31092;51.924;21.448;2022-12-07T00:18:42;99530.34;;;0.93;100.00
45357;BME280;31092;51.924;21.448;2022-12-07T00:21:16;99535.13;;;0.99;100.00
45357;BME280;31092;51.924;21.448;2022-12-07T00:23:44;99588.16;;;1.33;100.00
45357;BME280;31092;51.924;21.448;2022-12-07T00:28:36;99600.44;;;1.34;100.00
45357;BME280;31092;51.924;21.448;2022-12-07T00:33:29;99514.91;;;0.87;100.00
45357;BME280;31092;51.924;21.448;2022-12-07T00:35:56;99601.88;;;1.38;100.00
45357;BME280;31092;51.924;21.448;2022-12-07T00:38:22;99523.56;;;0.89;100.00
45357;BME280;31092;51.924;21.448;2022-12-07T00:40:55;99510.56;;;0.86;100.00
45357;BME280;31092;51.924;21.448;2022-12-07T00:43:20;99501.53;;;0.77;100.00
45357;BME280;31092;51.924;21.448;2022-12-07T00:45:46;99559.22;;;1.18;100.00
45357;BME280;31092;51.924;21.448;2022-12-07T00:48:11;99570.31;;;1.24;100.00
45357;BME280;31092;51.924;21.448;2022-12-07T00:50:37;99575.84;;;1.32;100.00
45357;BME280;31092;51.924;21.448;2022-12-07T00:53:02;99466.72;;;0.70;100.00
45357;BME280;31092;51.924;21.448;2022-12-07T00:55:28;99557.16;;;1.33;100.00
45357;BME280;31092;51.924;21.448;2022-12-07T00:57:53;99576.53;;;1.45;100.00
45357;BME280;31092;51.924;21.448;2022-12-07T01:00:19;99569.69;;;1.42;100.00
45357;BME280;31092;51.924;21.448;2022-12-07T01:02:44;99593.03;;;1.60;100.00
45357;BME280;31092;51.924;21.448;2022-12-07T01:05:10;99585.19;;;1.58;100.00
45357;BME280;31092;51.924;21.448;2022-12-07T01:07:37;99533.66;;;1.29;100.00
45357;BME280;31092;51.924;21.448;2022-12-07T01:10:03;99514.13;;;1.18;100.00
45357;BME280;31092;51.924;21.448;2022-12-07T01:12:28;99495.22;;;1.12;100.00
45357;BME280;31092;51.924;21.448;2022-12-07T01:14:54;99450.44;;;0.86;100.00
45357;BME280;31092;51.924;21.448;2022-12-07T01:17:19;99574.44;;;1.60;100.00
45357;BME280;31092;51.924;21.448;2022-12-07T01:19:45;99508.22;;;1.26;100.00
45357;BME280;31092;51.924;21.448;2022-12-07T01:22:10;99497.00;;;1.23;100.00
45357;BME280;31092;51.924;21.448;2022-12-07T01:24:35;99489.28;;;1.19;100.00
45357;BME280;31092;51.924;21.448;2022-12-07T01:27:01;99501.09;;;1.27;100.00
45357;BME280;31092;51.924;21.448;2022-12-07T01:29:26;99467.03;;;1.11;100.00
45357;BME280;31092;51.924;21.448;2022-12-07T01:31:52;99575.97;;;1.74;100.00
45357;BME280;31092;51.924;21.448;2022-12-07T01:34:17;99559.38;;;1.60;100.00
45357;BME280;31092;51.924;21.448;2022-12-07T01:36:43;99555.63;;;1.63;100.00
45357;BME280;31092;51.924;21.448;2022-12-07T01:39:09;99511.91;;;1.35;100.00
45357;BME280;31092;51.924;21.448;2022-12-07T01:41:38;99508.31;;;1.36;100.00
45357;BME280;31092;51.924;21.448;2022-12-07T01:44:21;99586.25;;;1.78;100.00
45357;BME280;31092;51.924;21.448;2022-12-07T01:49:25;99567.25;;;1.83;100.00
45357;BME280;31092;51.924;21.448;2022-12-07T01:51:58;99574.25;;;1.84;100.00
45357;BME280;31092;51.924;21.448;2022-12-07T01:54:26;99552.91;;;1.74;100.00
45357;BME280;31092;51.924;21.448;2022-12-07T01:56:54;99534.38;;;1.63;100.00
45357;BME280;31092;51.924;21.448;2022-12-07T01:59:23;99492.50;;;1.34;100.00
45357;BME280;31092;51.924;21.448;2022-12-07T02:01:51;99484.94;;;1.30;100.00
45357;BME280;31092;51.924;21.448;2022-12-07T02:04:18;99477.34;;;1.25;100.00
45357;BME280;31092;51.924;21.448;2022-12-07T02:06:44;99561.41;;;1.68;100.00
45357;BME280;31092;51.924;21.448;2022-12-07T02:09:11;99559.69;;;1.67;100.00
45357;BME280;31092;51.924;21.448;2022-12-07T02:11:37;99480.03;;;1.14;100.00
45357;BME280;31092;51.924;21.448;2022-12-07T02:14:03;99479.16;;;1.13;100.00
45357;BME280;31092;51.924;21.448;2022-12-07T02:25:06;99569.56;;;1.44;100.00
45357;BME280;31092;51.924;21.448;2022-12-07T02:30:49;99532.94;;;1.15;100.00
45357;BME280;31092;51.924;21.448;2022-12-07T02:33:24;99528.13;;;1.09;100.00
45357;BME280;31092;51.924;21.448;2022-12-07T02:36:03;99491.53;;;0.81;100.00
45357;BME280;31092;51.924;21.448;2022-12-07T02:38:58;99555.47;;;1.10;100.00
45357;BME280;31092;51.924;21.448;2022-12-07T02:41:46;99461.78;;;0.55;100.00
45357;BME280;31092;51.924;21.448;2022-12-07T02:44:19;99465.28;;;0.55;100.00
45357;BME280;31092;51.924;21.448;2022-12-07T02:47:01;99456.50;;;0.55;100.00
45357;BME280;31092;51.924;21.448;2022-12-07T02:49:29;99552.13;;;1.08;100.00
45357;BME280;31092;51.924;21.448;2022-12-07T02:51:55;99547.44;;;1.00;100.00
45357;BME280;31092;51.924;21.448;2022-12-07T02:54:21;99539.38;;;0.90;100.00
45357;BME280;31092;51.924;21.448;2022-12-07T02:57:05;99473.97;;;0.57;100.00
45357;BME280;31092;51.924;21.448;2022-12-07T03:10:21;99546.94;;;0.95;100.00
45357;BME280;31092;51.924;21.448;2022-12-07T03:13:50;99547.91;;;0.94;100.00
45357;BME280;31092;51.924;21.448;2022-12-07T03:16:11;99439.88;;;0.30;100.00
45357;BME280;31092;51.924;21.448;2022-12-07T03:18:44;99452.41;;;0.39;100.00
45357;BME280;31092;51.924;21.448;2022-12-07T03:21:16;99495.41;;;0.65;100.00
45357;BME280;31092;51.924;21.448;2022-12-07T03:23:46;99530.91;;;0.85;100.00
45357;BME280;31092;51.924;21.448;2022-12-07T03:26:14;99406.41;;;0.07;100.00
45357;BME280;31092;51.924;21.448;2022-12-07T03:28:47;99454.47;;;0.36;100.00
45357;BME280;31092;51.924;21.448;2022-12-07T03:31:28;99528.41;;;0.84;100.00
45357;BME280;31092;51.924;21.448;2022-12-07T03:34:03;99523.56;;;0.78;100.00
45357;BME280;31092;51.924;21.448;2022-12-07T03:36:37;99474.81;;;0.46;100.00
45357;BME280;31092;51.924;21.448;2022-12-07T03:39:25;99555.16;;;0.81;100.00
45357;BME280;31092;51.924;21.448;2022-12-07T03:41:52;99437.22;;;0.19;100.00
45357;BME280;31092;51.924;21.448;2022-12-07T03:44:18;99506.72;;;0.56;100.00
45357;BME280;31092;51.924;21.448;2022-12-07T03:47:05;99529.25;;;0.73;100.00
45357;BME280;31092;51.924;21.448;2022-12-07T03:49:53;99528.03;;;0.77;100.00
45357;BME280;31092;51.924;21.448;2022-12-07T03:52:28;99533.22;;;0.79;100.00
45357;BME280;31092;51.924;21.448;2022-12-07T03:57:26;99498.28;;;0.62;100.00
45357;BME280;31092;51.924;21.448;2022-12-07T03:59:55;99533.22;;;0.79;100.00
45357;BME280;31092;51.924;21.448;2022-12-07T04:02:22;99453.59;;;0.35;100.00
45357;BME280;31092;51.924;21.448;2022-12-07T04:04:49;99521.75;;;0.67;100.00
45357;BME280;31092;51.924;21.448;2022-12-07T04:07:14;99416.75;;;0.10;100.00
45357;BME280;31092;51.924;21.448;2022-12-07T04:09:40;99509.63;;;0.64;100.00
45357;BME280;31092;51.924;21.448;2022-12-07T04:12:06;99443.84;;;0.24;100.00
45357;BME280;31092;51.924;21.448;2022-12-07T04:14:31;99418.09;;;0.15;100.00
45357;BME280;31092;51.924;21.448;2022-12-07T04:16:58;99413.03;;;0.12;100.00
45357;BME280;31092;51.924;21.448;2022-12-07T04:19:28;99411.81;;;0.05;100.00
45357;BME280;31092;51.924;21.448;2022-12-07T04:21:55;99476.72;;;0.44;100.00
45357;BME280;31092;51.924;21.448;2022-12-07T04:24:20;99508.75;;;0.64;100.00
45357;BME280;31092;51.924;21.448;2022-12-07T04:26:46;99490.09;;;0.54;100.00
45357;BME280;31092;51.924;21.448;2022-12-07T04:29:13;99482.03;;;0.56;100.00
45357;BME280;31092;51.924;21.448;2022-12-07T04:31:39;99423.38;;;0.15;100.00
45357;BME280;31092;51.924;21.448;2022-12-07T04:34:05;99417.59;;;0.10;100.00
45357;BME280;31092;51.924;21.448;2022-12-07T04:36:31;99513.72;;;0.68;100.00
45357;BME280;31092;51.924;21.448;2022-12-07T04:38:58;99510.09;;;0.58;100.00
45357;BME280;31092;51.924;21.448;2022-12-07T04:41:24;99395.47;;;0.00;100.00
45357;BME280;31092;51.924;21.448;2022-12-07T04:43:56;99511.31;;;0.65;100.00
45357;BME280;31092;51.924;21.448;2022-12-07T04:46:24;99422.66;;;0.13;100.00
45357;BME280;31092;51.924;21.448;2022-12-07T04:48:50;99484.44;;;0.47;100.00
45357;BME280;31092;51.924;21.448;2022-12-07T04:51:20;99501.53;;;0.55;100.00
45357;BME280;31092;51.924;21.448;2022-12-07T04:53:46;99405.78;;;-0.08;100.00
45357;BME280;31092;51.924;21.448;2022-12-07T04:56:11;99482.50;;;0.38;100.00
45357;BME280;31092;51.924;21.448;2022-12-07T04:58:37;99404.81;;;-0.07;100.00
45357;BME280;31092;51.924;21.448;2022-12-07T05:01:02;99405.69;;;-0.07;100.00
45357;BME280;31092;51.924;21.448;2022-12-07T05:03:28;99470.47;;;0.34;100.00
45357;BME280;31092;51.924;21.448;2022-12-07T05:05:53;99421.44;;;0.06;100.00
45357;BME280;31092;51.924;21.448;2022-12-07T05:08:19;99403.75;;;-0.05;100.00
45357;BME280;31092;51.924;21.448;2022-12-07T05:10:44;99419.16;;;0.13;100.00
45357;BME280;31092;51.924;21.448;2022-12-07T05:13:10;99383.63;;;-0.18;100.00
45357;BME280;31092;51.924;21.448;2022-12-07T05:15:35;99499.13;;;0.52;100.00
45357;BME280;31092;51.924;21.448;2022-12-07T05:18:01;99477.56;;;0.45;100.00
45357;BME280;31092;51.924;21.448;2022-12-07T05:20:26;99396.03;;;-0.08;100.00
45357;BME280;31092;51.924;21.448;2022-12-07T05:22:52;99496.94;;;0.45;100.00
45357;BME280;31092;51.924;21.448;2022-12-07T05:25:17;99497.31;;;0.52;100.00
45357;BME280;31092;51.924;21.448;2022-12-07T05:27:43;99504.19;;;0.55;100.00
45357;BME280;31092;51.924;21.448;2022-12-07T05:30:08;99471.91;;;0.38;100.00
45357;BME280;31092;51.924;21.448;2022-12-07T05:32:34;99400.88;;;-0.02;100.00
45357;BME280;31092;51.924;21.448;2022-12-07T05:34:59;99481.19;;;0.44;100.00
45357;BME280;31092;51.924;21.448;2022-12-07T05:37:25;99436.41;;;0.18;100.00
45357;BME280;31092;51.924;21.448;2022-12-07T05:39:50;99425.44;;;0.12;100.00
45357;BME280;31092;51.924;21.448;2022-12-07T05:42:16;99376.66;;;-0.19;100.00
45357;BME280;31092;51.924;21.448;2022-12-07T05:44:45;99471.19;;;0.36;100.00
45357;BME280;31092;51.924;21.448;2022-12-07T05:47:12;99392.19;;;-0.15;100.00
45357;BME280;31092;51.924;21.448;2022-12-07T05:49:38;99473.84;;;0.25;100.00
45357;BME280;31092;51.924;21.448;2022-12-07T05:52:03;99458.28;;;0.20;100.00
45357;BME280;31092;51.924;21.448;2022-12-07T05:54:29;99413.13;;;-0.12;100.00
45357;BME280;31092;51.924;21.448;2022-12-07T05:56:55;99488.28;;;0.32;100.00
45357;BME280;31092;51.924;21.448;2022-12-07T05:59:20;99482.25;;;0.30;100.00
45357;BME280;31092;51.924;21.448;2022-12-07T06:02:32;99502.63;;;0.41;100.00
45357;BME280;31092;51.924;21.448;2022-12-07T06:04:50;99414.78;;;-0.11;100.00
45357;BME280;31092;51.924;21.448;2022-12-07T06:07:16;99380.50;;;-0.35;100.00
45357;BME280;31092;51.924;21.448;2022-12-07T06:09:42;99492.25;;;0.27;100.00
45357;BME280;31092;51.924;21.448;2022-12-07T06:12:10;99419.38;;;-0.13;100.00
45357;BME280;31092;51.924;21.448;2022-12-07T06:14:54;99454.91;;;0.07;100.00
45357;BME280;31092;51.924;21.448;2022-12-07T06:17:20;99438.38;;;-0.08;100.00
45357;BME280;31092;51.924;21.448;2022-12-07T06:19:45;99412.28;;;-0.23;100.00
45357;BME280;31092;51.924;21.448;2022-12-07T06:22:11;99489.00;;;0.23;100.00
45357;BME280;31092;51.924;21.448;2022-12-07T06:24:38;99409.72;;;-0.25;100.00
45357;BME280;31092;51.924;21.448;2022-12-07T06:27:04;99364.34;;;-0.54;100.00
45357;BME280;31092;51.924;21.448;2022-12-07T06:29:30;99467.06;;;0.10;100.00
45357;BME280;31092;51.924;21.448;2022-12-07T06:31:55;99406.38;;;-0.27;100.00
45357;BME280;31092;51.924;21.448;2022-12-07T06:34:22;99443.22;;;-0.02;100.00
45357;BME280;31092;51.924;21.448;2022-12-07T06:36:48;99436.94;;;-0.12;100.00
45357;BME280;31092;51.924;21.448;2022-12-07T06:39:18;99414.19;;;-0.26;100.00
45357;BME280;31092;51.924;21.448;2022-12-07T06:41:44;99427.78;;;-0.19;100.00
45357;BME280;31092;51.924;21.448;2022-12-07T06:44:09;99502.84;;;0.27;100.00
45357;BME280;31092;51.924;21.448;2022-12-07T06:46:35;99416.50;;;-0.21;100.00
45357;BME280;31092;51.924;21.448;2022-12-07T06:49:01;99486.81;;;0.17;100.00
45357;BME280;31092;51.924;21.448;2022-12-07T06:51:26;99469.47;;;0.13;100.00
45357;BME280;31092;51.924;21.448;2022-12-07T06:53:52;99445.63;;;0.02;100.00
45357;BME280;31092;51.924;21.448;2022-12-07T06:56:18;99390.84;;;-0.32;100.00
45357;BME280;31092;51.924;21.448;2022-12-07T06:58:43;99478.41;;;0.23;100.00
45357;BME280;31092;51.924;21.448;2022-12-07T07:01:14;99497.41;;;0.28;100.00
45357;BME280;31092;51.924;21.448;2022-12-07T07:03:40;99400.25;;;-0.28;100.00
45357;BME280;31092;51.924;21.448;2022-12-07T07:06:06;99489.47;;;0.28;100.00
45357;BME280;31092;51.924;21.448;2022-12-07T07:08:33;99495.03;;;0.25;100.00
45357;BME280;31092;51.924;21.448;2022-12-07T07:10:59;99466.97;;;0.11;100.00
45357;BME280;31092;51.924;21.448;2022-12-07T07:13:25;99469.97;;;0.18;100.00
45357;BME280;31092;51.924;21.448;2022-12-07T07:15:50;99369.63;;;-0.43;100.00
45357;BME280;31092;51.924;21.448;2022-12-07T07:18:16;99360.16;;;-0.45;100.00
45357;BME280;31092;51.924;21.448;2022-12-07T07:20:41;99396.00;;;-0.30;100.00
45357;BME280;31092;51.924;21.448;2022-12-07T07:23:07;99487.41;;;0.32;100.00
45357;BME280;31092;51.924;21.448;2022-12-07T07:25:33;99491.66;;;0.34;100.00
45357;BME280;31092;51.924;21.448;2022-12-07T07:27:59;99421.28;;;-0.15;100.00
45357;BME280;31092;51.924;21.448;2022-12-07T07:30:25;99469.72;;;0.21;100.00
45357;BME280;31092;51.924;21.448;2022-12-07T07:32:50;99480.91;;;0.24;100.00
45357;BME280;31092;51.924;21.448;2022-12-07T07:35:16;99429.75;;;-0.10;100.00
45357;BME280;31092;51.924;21.448;2022-12-07T07:37:42;99439.38;;;0.03;100.00
45357;BME280;31092;51.924;21.448;2022-12-07T07:40:08;99398.06;;;-0.22;100.00
45357;BME280;31092;51.924;21.448;2022-12-07T07:42:34;99384.94;;;-0.35;100.00
45357;BME280;31092;51.924;21.448;2022-12-07T07:45:00;99467.34;;;0.18;100.00
45357;BME280;31092;51.924;21.448;2022-12-07T07:47:25;99401.44;;;-0.20;100.00
45357;BME280;31092;51.924;21.448;2022-12-07T07:49:51;99391.47;;;-0.28;100.00
45357;BME280;31092;51.924;21.448;2022-12-07T07:52:16;99483.56;;;0.24;100.00
45357;BME280;31092;51.924;21.448;2022-12-07T07:54:42;99389.75;;;-0.29;100.00
45357;BME280;31092;51.924;21.448;2022-12-07T07:57:07;99500.78;;;0.30;100.00
45357;BME280;31092;51.924;21.448;2022-12-07T07:59:33;99479.47;;;0.20;100.00
45357;BME280;31092;51.924;21.448;2022-12-07T08:01:58;99407.94;;;-0.25;100.00
45357;BME280;31092;51.924;21.448;2022-12-07T08:04:24;99434.06;;;-0.09;100.00
45357;BME280;31092;51.924;21.448;2022-12-07T08:06:49;99481.88;;;0.23;100.00
45357;BME280;31092;51.924;21.448;2022-12-07T08:09:15;99458.50;;;0.06;100.00
45357;BME280;31092;51.924;21.448;2022-12-07T08:11:40;99464.66;;;0.07;100.00
45357;BME280;31092;51.924;21.448;2022-12-07T08:14:06;99403.81;;;-0.29;100.00
45357;BME280;31092;51.924;21.448;2022-12-07T08:16:31;99490.44;;;0.27;100.00
45357;BME280;31092;51.924;21.448;2022-12-07T08:18:57;99457.44;;;0.09;100.00
45357;BME280;31092;51.924;21.448;2022-12-07T08:21:23;99405.53;;;-0.28;100.00
45357;BME280;31092;51.924;21.448;2022-12-07T08:23:48;99410.81;;;-0.28;100.00
45357;BME280;31092;51.924;21.448;2022-12-07T08:26:15;99407.34;;;-0.28;100.00
45357;BME280;31092;51.924;21.448;2022-12-07T08:28:41;99431.03;;;-0.15;100.00
45357;BME280;31092;51.924;21.448;2022-12-07T08:31:10;99402.88;;;-0.28;100.00
45357;BME280;31092;51.924;21.448;2022-12-07T08:33:36;99497.91;;;0.33;100.00
45357;BME280;31092;51.924;21.448;2022-12-07T08:36:04;99501.41;;;0.34;100.00
45357;BME280;31092;51.924;21.448;2022-12-07T08:38:30;99415.97;;;-0.26;100.00
45357;BME280;31092;51.924;21.448;2022-12-07T08:40:57;99437.78;;;-0.11;100.00
45357;BME280;31092;51.924;21.448;2022-12-07T08:43:23;99430.56;;;-0.09;100.00
45357;BME280;31092;51.924;21.448;2022-12-07T08:49:02;99504.78;;;0.36;100.00
45357;BME280;31092;51.924;21.448;2022-12-07T08:51:29;99429.00;;;-0.12;100.00
45357;BME280;31092;51.924;21.448;2022-12-07T08:53:55;99502.16;;;0.36;100.00
45357;BME280;31092;51.924;21.448;2022-12-07T08:56:24;99512.59;;;0.37;100.00
45357;BME280;31092;51.924;21.448;2022-12-07T08:58:49;99500.09;;;0.39;100.00
45357;BME280;31092;51.924;21.448;2022-12-07T09:01:15;99447.31;;;0.03;100.00
45357;BME280;31092;51.924;21.448;2022-12-07T09:03:41;99413.47;;;-0.16;100.00
45357;BME280;31092;51.924;21.448;2022-12-07T09:06:07;99435.03;;;0.02;100.00
45357;BME280;31092;51.924;21.448;2022-12-07T09:08:36;99488.28;;;0.32;100.00
45357;BME280;31092;51.924;21.448;2022-12-07T09:11:03;99483.69;;;0.34;100.00
45357;BME280;31092;51.924;21.448;2022-12-07T09:13:28;99438.28;;;0.05;100.00
45357;BME280;31092;51.924;21.448;2022-12-07T09:15:54;99416.97;;;-0.05;100.00
45357;BME280;31092;51.924;21.448;2022-12-07T09:18:23;99485.38;;;0.35;100.00
45357;BME280;31092;51.924;21.448;2022-12-07T09:20:50;99426.03;;;0.04;100.00
45357;BME280;31092;51.924;21.448;2022-12-07T09:23:15;99482.41;;;0.40;100.00
45357;BME280;31092;51.924;21.448;2022-12-07T09:25:41;99408.06;;;-0.04;100.00
45357;BME280;31092;51.924;21.448;2022-12-07T09:28:06;99434.81;;;0.16;100.00
45357;BME280;31092;51.924;21.448;2022-12-07T09:30:32;99404.84;;;0.04;100.00
45357;BME280;31092;51.924;21.448;2022-12-07T09:32:58;99488.06;;;0.58;100.00
45357;BME280;31092;51.924;21.448;2022-12-07T09:35:24;99406.28;;;0.08;100.00
45357;BME280;31092;51.924;21.448;2022-12-07T09:37:50;99465.06;;;0.47;100.00
45357;BME280;31092;51.924;21.448;2022-12-07T09:40:17;99460.22;;;0.52;100.00
45357;BME280;31092;51.924;21.448;2022-12-07T09:42:45;99407.03;;;0.21;100.00
45357;BME280;31092;51.924;21.448;2022-12-07T09:45:25;99484.06;;;0.75;100.00
45357;BME280;31092;51.924;21.448;2022-12-07T09:47:52;99413.53;;;0.40;100.00
45357;BME280;31092;51.924;21.448;2022-12-07T09:50:23;99409.44;;;0.36;100.00
45357;BME280;31092;51.924;21.448;2022-12-07T09:52:50;99363.47;;;0.14;100.00
45357;BME280;31092;51.924;21.448;2022-12-07T09:55:23;99455.38;;;0.80;100.00
45357;BME280;31092;51.924;21.448;2022-12-07T09:57:50;99477.16;;;0.94;100.00
45357;BME280;31092;51.924;21.448;2022-12-07T10:00:19;99475.84;;;0.89;100.00
45357;BME280;31092;51.924;21.448;2022-12-07T10:02:55;99379.44;;;0.35;100.00
45357;BME280;31092;51.924;21.448;2022-12-07T10:05:25;99470.19;;;0.93;100.00
45357;BME280;31092;51.924;21.448;2022-12-07T10:07:52;99477.97;;;1.06;100.00
45357;BME280;31092;51.924;21.448;2022-12-07T10:10:24;99373.28;;;0.46;100.00
45357;BME280;31092;51.924;21.448;2022-12-07T10:13:08;99435.13;;;0.90;100.00
45357;BME280;31092;51.924;21.448;2022-12-07T10:15:47;99397.72;;;0.61;100.00
45357;BME280;31092;51.924;21.448;2022-12-07T10:18:21;99379.75;;;0.53;100.00
45357;BME280;31092;51.924;21.448;2022-12-07T10:21:00;99488.22;;;1.22;100.00
45357;BME280;31092;51.924;21.448;2022-12-07T10:23:26;99421.03;;;0.89;100.00
45357;BME280;31092;51.924;21.448;2022-12-07T10:25:52;99468.66;;;1.23;100.00
45357;BME280;31092;51.924;21.448;2022-12-07T10:28:20;99378.31;;;0.71;100.00
45357;BME280;31092;51.924;21.448;2022-12-07T10:30:47;99479.22;;;1.34;100.00
45357;BME280;31092;51.924;21.448;2022-12-07T10:36:01;99458.66;;;1.27;100.00
45357;BME280;31092;51.924;21.448;2022-12-07T10:38:45;99425.53;;;1.10;100.00
45357;BME280;31092;51.924;21.448;2022-12-07T10:41:11;99400.16;;;0.96;100.00
45357;BME280;31092;51.924;21.448;2022-12-07T10:43:37;99397.63;;;0.94;100.00
45357;BME280;31092;51.924;21.448;2022-12-07T10:46:26;99462.69;;;1.42;100.00
45357;BME280;31092;51.924;21.448;2022-12-07T10:49:36;99463.28;;;1.46;100.00
45357;BME280;31092;51.924;21.448;2022-12-07T11:05:29;99395.78;;;1.06;100.00
45357;BME280;31092;51.924;21.448;2022-12-07T11:08:05;99472.41;;;1.53;100.00
45357;BME280;31092;51.924;21.448;2022-12-07T11:16:08;99485.69;;;1.53;100.00
45357;BME280;31092;51.924;21.448;2022-12-07T11:24:01;99469.66;;;1.54;100.00
45357;BME280;31092;51.924;21.448;2022-12-07T11:26:50;99460.38;;;1.49;100.00
45357;BME280;31092;51.924;21.448;2022-12-07T11:33:27;99463.75;;;1.51;100.00
45357;BME280;31092;51.924;21.448;2022-12-07T11:37:57;99457.59;;;1.50;100.00
45357;BME280;31092;51.924;21.448;2022-12-07T11:40:35;99379.66;;;0.98;100.00
45357;BME280;31092;51.924;21.448;2022-12-07T11:43:11;99443.41;;;1.40;100.00
45357;BME280;31092;51.924;21.448;2022-12-07T11:45:42;99443.53;;;1.38;100.00
45357;BME280;31092;51.924;21.448;2022-12-07T11:48:21;99370.28;;;0.94;100.00
45357;BME280;31092;51.924;21.448;2022-12-07T11:50:57;99381.69;;;1.06;100.00
45357;BME280;31092;51.924;21.448;2022-12-07T11:53:55;99455.06;;;1.49;100.00
45357;BME280;31092;51.924;21.448;2022-12-07T11:56:26;99456.88;;;1.48;100.00
45357;BME280;31092;51.924;21.448;2022-12-07T11:59:17;99397.94;;;1.12;100.00
45357;BME280;31092;51.924;21.448;2022-12-07T12:01:56;99392.66;;;1.01;100.00
45357;BME280;31092;51.924;21.448;2022-12-07T12:06:55;99408.44;;;1.14;100.00
45357;BME280;31092;51.924;21.448;2022-12-07T12:09:29;99350.94;;;0.82;100.00
45357;BME280;31092;51.924;21.448;2022-12-07T12:22:55;99450.72;;;1.48;100.00
45357;BME280;31092;51.924;21.448;2022-12-07T12:25:26;99412.47;;;1.29;100.00
45357;BME280;31092;51.924;21.448;2022-12-07T12:27:56;99423.53;;;1.34;100.00
45357;BME280;31092;51.924;21.448;2022-12-07T12:30:41;99361.69;;;1.02;100.00
45357;BME280;31092;51.924;21.448;2022-12-07T12:33:13;99449.50;;;1.52;100.00
45357;BME280;31092;51.924;21.448;2022-12-07T12:35:40;99421.34;;;1.39;100.00
45357;BME280;31092;51.924;21.448;2022-12-07T12:46:56;99434.56;;;1.51;100.00
45357;BME280;31092;51.924;21.448;2022-12-07T12:51:54;99440.94;;;1.48;100.00
45357;BME280;31092;51.924;21.448;2022-12-07T12:54:28;99411.09;;;1.35;100.00
45357;BME280;31092;51.924;21.448;2022-12-07T12:59:42;99339.44;;;0.93;100.00
45357;BME280;31092;51.924;21.448;2022-12-07T13:02:28;99353.72;;;1.02;100.00
45357;BME280;31092;51.924;21.448;2022-12-07T13:12:56;99435.31;;;1.41;100.00
45357;BME280;31092;51.924;21.448;2022-12-07T13:15:36;99350.75;;;0.95;100.00
45357;BME280;31092;51.924;21.448;2022-12-07T13:29:18;99432.22;;;1.36;100.00
45357;BME280;31092;51.924;21.448;2022-12-07T13:31:53;99336.81;;;0.82;100.00
45357;BME280;31092;51.924;21.448;2022-12-07T13:34:36;99423.78;;;1.31;100.00
45357;BME280;31092;51.924;21.448;2022-12-07T13:37:11;99325.03;;;0.75;100.00
45357;BME280;31092;51.924;21.448;2022-12-07T13:39:46;99340.31;;;0.82;100.00
45357;BME280;31092;51.924;21.448;2022-12-07T13:42:24;99361.25;;;0.97;100.00
45357;BME280;31092;51.924;21.448;2022-12-07T13:44:51;99418.59;;;1.30;100.00
45357;BME280;31092;51.924;21.448;2022-12-07T13:47:23;99344.41;;;0.86;100.00
45357;BME280;31092;51.924;21.448;2022-12-07T13:49:54;99427.91;;;1.24;100.00
45357;BME280;31092;51.924;21.448;2022-12-07T13:52:28;99410.56;;;1.20;100.00
45357;BME280;31092;51.924;21.448;2022-12-07T13:57:27;99353.44;;;0.84;100.00
45357;BME280;31092;51.924;21.448;2022-12-07T13:59:53;99314.50;;;0.52;100.00
45357;BME280;31092;51.924;21.448;2022-12-07T14:02:31;99436.34;;;1.29;100.00
45357;BME280;31092;51.924;21.448;2022-12-07T14:05:09;99422.00;;;1.20;100.00
45357;BME280;31092;51.924;21.448;2022-12-07T14:07:54;99352.84;;;0.80;100.00
45357;BME280;31092;51.924;21.448;2022-12-07T14:10:32;99398.81;;;1.02;100.00
45357;BME280;31092;51.924;21.448;2022-12-07T14:12:59;99335.91;;;0.71;100.00
45357;BME280;31092;51.924;21.448;2022-12-07T14:15:33;99332.78;;;0.66;100.00
45357;BME280;31092;51.924;21.448;2022-12-07T14:18:00;99337.81;;;0.69;100.00
45357;BME280;31092;51.924;21.448;2022-12-07T14:23:25;99376.81;;;0.90;100.00
45357;BME280;31092;51.924;21.448;2022-12-07T14:25:52;99450.44;;;1.30;100.00
45357;BME280;31092;51.924;21.448;2022-12-07T14:28:34;99413.84;;;1.12;100.00
45357;BME280;31092;51.924;21.448;2022-12-07T14:31:01;99399.28;;;1.07;100.00
45357;BME280;31092;51.924;21.448;2022-12-07T14:33:28;99411.78;;;1.16;100.00
45357;BME280;31092;51.924;21.448;2022-12-07T14:35:53;99325.19;;;0.62;100.00
45357;BME280;31092;51.924;21.448;2022-12-07T14:38:24;99350.19;;;0.80;100.00
45357;BME280;31092;51.924;21.448;2022-12-07T14:40:51;99412.75;;;1.15;100.00
45357;BME280;31092;51.924;21.448;2022-12-07T14:43:19;99403.88;;;1.05;100.00
45357;BME280;31092;51.924;21.448;2022-12-07T14:45:45;99417.47;;;1.11;100.00
45357;BME280;31092;51.924;21.448;2022-12-07T14:48:12;99436.25;;;1.19;100.00
45357;BME280;31092;51.924;21.448;2022-12-07T14:50:43;99350.97;;;0.60;100.00
45357;BME280;31092;51.924;21.448;2022-12-07T14:53:14;99353.63;;;0.60;100.00
45357;BME280;31092;51.924;21.448;2022-12-07T14:55:40;99415.09;;;0.97;100.00
45357;BME280;31092;51.924;21.448;2022-12-07T14:58:08;99303.97;;;0.30;100.00
45357;BME280;31092;51.924;21.448;2022-12-07T15:00:37;99351.94;;;0.59;100.00